createdAt,value
2019-01-12T00:00:44.660Z,101014.47
2019-01-12T00:03:14.099Z,101004.81
2019-01-12T00:05:43.487Z,101004.81
2019-01-12T00:08:12.898Z,101001.05
2019-01-12T00:10:42.258Z,101007.93
2019-01-12T00:13:11.646Z,101011.60
2019-01-12T00:15:41.007Z,101008.95
2019-01-12T00:18:10.404Z,101008.95
2019-01-12T00:20:39.757Z,101004.77
2019-01-12T00:23:09.083Z,101000.05
2019-01-12T00:25:38.472Z,100998.27
2019-01-12T00:28:07.842Z,101010.09
2019-01-12T00:30:37.405Z,101010.63
2019-01-12T00:33:06.770Z,101010.63
2019-01-12T00:35:36.210Z,101014.88
2019-01-12T00:38:05.562Z,101019.87
2019-01-12T00:40:34.965Z,101015.72
2019-01-12T00:43:04.319Z,101010.78
2019-01-12T00:45:33.713Z,101010.78
2019-01-12T00:48:03.076Z,101021.19
2019-01-12T00:50:32.523Z,101029.46
2019-01-12T00:53:01.856Z,101029.46
2019-01-12T00:55:31.267Z,101024.42
2019-01-12T00:58:00.609Z,101039.79
2019-01-12T01:00:30.034Z,101039.79
2019-01-12T01:02:59.386Z,101032.41
2019-01-12T01:05:28.804Z,101039.58
2019-01-12T01:07:58.238Z,101039.58
2019-01-12T01:10:27.641Z,101040.56
2019-01-12T01:12:56.983Z,101040.56
2019-01-12T01:15:26.361Z,101031.38
2019-01-12T01:17:55.709Z,101031.38
2019-01-12T01:20:25.136Z,101046.97
2019-01-12T01:22:54.487Z,101046.97
2019-01-12T01:25:23.907Z,101043.88
2019-01-12T01:27:53.283Z,101043.22
2019-01-12T01:30:22.651Z,101043.22
2019-01-12T01:32:52.066Z,101054.77
2019-01-12T01:35:21.455Z,101054.77
2019-01-12T01:37:50.872Z,101051.08
2019-01-12T01:40:20.214Z,101057.58
2019-01-12T01:42:49.649Z,101056.45
2019-01-12T01:45:19.052Z,101056.45
2019-01-12T01:47:48.460Z,101049.47
2019-01-12T01:50:17.810Z,101063.38
2019-01-12T01:52:48.408Z,101063.38
2019-01-12T01:55:17.876Z,101062.95
2019-01-12T01:57:47.416Z,101061.80
2019-01-12T02:00:18.212Z,101061.80
2019-01-12T02:02:47.637Z,101060.99
2019-01-12T02:05:17.021Z,101061.48
2019-01-12T02:07:46.445Z,101061.48
2019-01-12T02:10:22.959Z,101053.09
2019-01-12T02:12:52.340Z,101059.77
2019-01-12T02:15:23.135Z,101059.77
2019-01-12T02:17:52.553Z,101062.31
2019-01-12T02:20:23.189Z,101048.97
2019-01-12T02:22:52.727Z,101054.20
2019-01-12T02:25:22.112Z,101054.20
2019-01-12T02:27:51.527Z,101056.16
2019-01-12T02:30:22.974Z,101056.16
2019-01-12T02:32:52.399Z,101057.25
2019-01-12T02:35:21.749Z,101057.25
2019-01-12T02:37:51.190Z,101055.11
2019-01-12T02:40:20.542Z,101071.08
2019-01-12T02:42:49.966Z,101067.63
2019-01-12T02:45:19.319Z,101060.52
2019-01-12T02:47:48.760Z,101059.39
2019-01-12T02:50:18.106Z,101059.39
2019-01-12T02:52:47.528Z,101052.97
2019-01-12T02:55:16.926Z,101052.97
2019-01-12T02:57:46.288Z,101056.48
2019-01-12T03:00:17.760Z,101055.95
2019-01-12T03:02:47.153Z,101055.95
2019-01-12T03:05:16.508Z,101052.36
2019-01-12T03:07:45.875Z,101057.75
2019-01-12T03:10:16.645Z,101057.75
2019-01-12T03:12:46.000Z,101060.75
2019-01-12T03:15:17.515Z,101065.41
2019-01-12T03:17:46.942Z,101062.72
2019-01-12T03:20:17.680Z,101055.98
2019-01-12T03:22:47.128Z,101058.59
2019-01-12T03:25:18.754Z,101058.59
2019-01-12T03:27:47.654Z,101057.45
2019-01-12T03:30:18.686Z,101057.45
2019-01-12T03:32:48.190Z,101048.44
2019-01-12T03:35:17.572Z,101054.16
2019-01-12T03:37:47.063Z,101054.16
2019-01-12T03:40:18.459Z,101046.98
2019-01-12T03:42:47.872Z,101038.17
2019-01-12T03:45:18.124Z,101033.84
2019-01-12T03:47:47.519Z,101042.78
2019-01-12T03:50:16.950Z,101037.47
2019-01-12T03:52:46.361Z,101040.02
2019-01-12T03:55:15.770Z,101025.41
2019-01-12T03:57:45.179Z,101018.49
2019-01-12T04:00:22.853Z,101018.49
2019-01-12T04:02:52.277Z,101025.14
2019-01-12T04:05:21.663Z,101035.78
2019-01-12T04:07:51.041Z,101030.50
2019-01-12T04:10:20.476Z,101019.63
2019-01-12T04:12:49.849Z,101023.70
2019-01-12T04:15:19.258Z,101028.30
2019-01-12T04:17:48.600Z,101017.17
2019-01-12T04:20:18.493Z,101021.44
2019-01-12T04:22:47.881Z,101024.19
2019-01-12T04:25:17.280Z,101024.19
2019-01-12T04:27:46.689Z,101014.17
2019-01-12T04:30:17.926Z,101014.17
2019-01-12T04:32:47.299Z,101005.05
2019-01-12T04:35:16.827Z,101005.05
2019-01-12T04:37:46.192Z,101005.84
2019-01-12T04:40:20.047Z,100997.31
2019-01-12T04:42:49.418Z,100994.11
2019-01-12T04:45:18.819Z,100985.01
2019-01-12T04:47:48.189Z,100997.83
2019-01-12T04:50:18.131Z,101000.50
2019-01-12T04:52:47.559Z,101001.28
2019-01-12T04:55:17.064Z,101001.66
2019-01-12T04:57:46.431Z,101001.66
2019-01-12T05:00:19.491Z,100989.52
2019-01-12T05:02:48.891Z,100989.52
2019-01-12T05:05:18.279Z,100991.20
2019-01-12T05:07:47.695Z,100991.20
2019-01-12T05:10:17.090Z,100989.51
2019-01-12T05:12:46.469Z,100979.52
2019-01-12T05:15:16.207Z,100979.52
2019-01-12T05:17:45.581Z,100986.06
2019-01-12T05:20:19.529Z,100986.06
2019-01-12T05:22:48.977Z,100992.59
2019-01-12T05:25:18.460Z,100990.63
2019-01-12T05:27:47.849Z,100992.63
2019-01-12T05:30:21.754Z,100996.34
2019-01-12T05:32:51.393Z,100980.49
2019-01-12T05:35:20.815Z,100995.18
2019-01-12T05:37:50.163Z,100978.45
2019-01-12T05:40:19.599Z,100978.45
2019-01-12T05:42:48.932Z,100994.70
2019-01-12T05:45:18.354Z,100999.22
2019-01-12T05:47:47.736Z,100999.22
2019-01-12T05:50:17.126Z,100999.66
2019-01-12T05:52:46.485Z,101002.98
2019-01-12T05:55:15.878Z,100998.14
2019-01-12T05:57:45.221Z,101019.18
2019-01-12T06:00:19.404Z,101022.38
2019-01-12T06:02:48.749Z,101008.59
2019-01-12T06:05:18.127Z,101008.59
2019-01-12T06:07:47.535Z,101022.80
2019-01-12T06:10:16.886Z,101022.80
2019-01-12T06:12:46.318Z,101004.45
2019-01-12T06:15:15.818Z,101004.45
2019-01-12T06:17:45.242Z,101010.48
2019-01-12T06:20:15.454Z,101010.48
2019-01-12T06:22:44.822Z,101008.01
2019-01-12T06:25:14.199Z,101010.00
2019-01-12T06:27:43.627Z,101017.48
2019-01-12T06:30:15.551Z,101017.48
2019-01-12T06:32:44.948Z,101016.36
2019-01-12T06:35:14.339Z,101003.67
2019-01-12T06:37:43.738Z,101012.00
